Time;durP1;ratioP1;P1;durP2;ratioP2;P2;SDS_P1;SDS_P2;PMS_P1;PMS_P2;Temp;Humidity;BMP_temperature;BMP_pressure;BME280_temperature;BME280_humidity;BME280_pressure;Samples;Min_cycle;Max_cycle;Signal;HPM_P1;HPM_P2
2023/05/22 00:01:41;;;;;;;5.78;3.28;;;16.70;63.20;;;;;;6179312;22;20019;-58
2023/05/22 00:04:07;;;;;;;3.88;3.13;;;16.70;63.30;;;;;;6177891;22;20005;-58
2023/05/22 00:06:33;;;;;;;4.93;3.40;;;16.60;63.30;;;;;;6178789;23;20043;-57
2023/05/22 00:08:59;;;;;;;4.53;3.40;;;16.60;63.40;;;;;;6178814;22;20020;-57
2023/05/22 00:11:24;;;;;;;5.20;3.67;;;16.60;63.50;;;;;;6179069;22;20511;-58
2023/05/22 00:13:50;;;;;;;3.67;3.30;;;16.60;63.50;;;;;;6178706;22;20013;-58
2023/05/22 00:16:16;;;;;;;4.03;3.17;;;16.60;63.60;;;;;;6178352;22;20005;-56
2023/05/22 00:18:42;;;;;;;5.47;3.67;;;16.60;63.60;;;;;;6176986;22;20379;-59
2023/05/22 00:21:10;;;;;;;4.43;3.20;;;16.60;63.50;;;;;;6178471;22;20001;-56
2023/05/22 00:23:36;;;;;;;5.22;3.33;;;16.60;63.60;;;;;;6178372;22;20009;-58
2023/05/22 00:26:02;;;;;;;7.00;3.20;;;16.60;63.50;;;;;;6178540;22;20020;-57
2023/05/22 00:28:28;;;;;;;4.75;3.70;;;16.60;63.30;;;;;;6178431;22;20104;-57
2023/05/22 00:30:53;;;;;;;4.93;3.67;;;16.50;63.00;;;;;;6178928;22;20004;-58
2023/05/22 00:33:19;;;;;;;5.43;3.47;;;16.60;63.20;;;;;;6176851;22;20013;-58
2023/05/22 00:35:45;;;;;;;4.75;3.35;;;16.50;63.20;;;;;;6178315;22;20005;-58
2023/05/22 00:38:31;;;;;;;4.45;3.60;;;16.50;63.00;;;;;;6179294;22;20009;-58
2023/05/22 00:40:56;;;;;;;4.82;3.20;;;16.50;63.10;;;;;;6178101;22;20027;-57
2023/05/22 00:43:22;;;;;;;5.63;3.72;;;16.50;62.80;;;;;;6176958;22;20701;-57
2023/05/22 00:45:48;;;;;;;3.50;3.15;;;16.40;62.40;;;;;;6179038;23;20005;-56
2023/05/22 00:48:14;;;;;;;6.03;3.80;;;16.40;62.40;;;;;;6178753;22;20058;-58
2023/05/22 00:50:41;;;;;;;5.38;3.38;;;16.40;62.30;;;;;;6178573;22;20122;-60
2023/05/22 00:53:07;;;;;;;4.97;3.47;;;16.40;62.50;;;;;;6179259;22;20096;-57
2023/05/22 00:55:33;;;;;;;4.57;3.65;;;16.40;62.80;;;;;;6179199;22;20016;-57
2023/05/22 00:57:59;;;;;;;5.68;3.80;;;16.40;62.90;;;;;;6178624;22;20001;-57
2023/05/22 01:00:25;;;;;;;5.05;3.70;;;16.40;63.00;;;;;;6178339;23;20005;-58
2023/05/22 01:02:51;;;;;;;4.63;3.50;;;16.40;63.00;;;;;;6179205;22;20054;-57
2023/05/22 01:05:16;;;;;;;5.07;3.30;;;16.40;62.70;;;;;;6179354;22;20057;-56
2023/05/22 01:07:44;;;;;;;4.35;3.10;;;16.40;62.50;;;;;;6178400;22;20005;-57
2023/05/22 01:10:10;;;;;;;4.80;3.30;;;16.50;62.50;;;;;;6178956;22;20001;-56
2023/05/22 01:13:00;;;;;;;5.93;3.70;;;16.50;62.70;;;;;;6179611;22;20318;-58
2023/05/22 01:15:30;;;;;;;5.07;3.53;;;16.50;62.80;;;;;;6178732;22;20044;-57
2023/05/22 01:18:18;;;;;;;4.38;3.50;;;16.50;62.90;;;;;;6177438;22;20012;-57
2023/05/22 01:21:05;;;;;;;5.15;3.17;;;16.50;62.80;;;;;;6175995;22;20012;-57
2023/05/22 01:24:24;;;;;;;4.82;3.38;;;16.60;62.80;;;;;;6178409;22;20052;-56
2023/05/22 01:27:17;;;;;;;4.15;3.42;;;16.60;62.60;;;;;;6178498;22;20009;-56
2023/05/22 01:29:56;;;;;;;5.55;3.58;;;16.60;62.60;;;;;;6178103;23;20001;-58
2023/05/22 01:32:24;;;;;;;6.32;3.60;;;16.60;62.60;;;;;;6177997;23;20005;-56
2023/05/22 01:34:55;;;;;;;5.28;3.60;;;16.60;62.90;;;;;;6177994;22;20096;-56
2023/05/22 01:37:23;;;;;;;6.93;3.83;;;16.60;63.00;;;;;;6178323;22;20433;-56
2023/05/22 01:39:50;;;;;;;4.65;3.70;;;16.60;63.50;;;;;;6177758;23;20001;-56
2023/05/22 01:42:17;;;;;;;4.75;3.50;;;16.60;62.80;;;;;;6178732;22;20044;-59
2023/05/22 01:44:43;;;;;;;5.28;3.30;;;16.60;62.50;;;;;;6179170;22;20076;-56
2023/05/22 01:47:09;;;;;;;6.30;3.72;;;16.60;62.70;;;;;;6178693;22;20032;-56
2023/05/22 01:49:35;;;;;;;4.70;3.58;;;16.50;62.60;;;;;;6281438;22;20016;-57
2023/05/22 01:52:36;;;;;;;5.43;3.45;;;16.50;62.60;;;;;;6178202;22;20009;-56
2023/05/22 01:55:33;;;;;;;5.47;3.92;;;16.50;62.50;;;;;;6204949;22;20024;-57
2023/05/22 01:58:12;;;;;;;5.47;3.47;;;16.50;62.40;;;;;;6182034;22;20058;-56
2023/05/22 02:00:42;;;;;;;5.40;3.65;;;16.40;62.50;;;;;;6178564;22;20008;-57
2023/05/22 02:03:15;;;;;;;4.90;3.80;;;16.40;62.80;;;;;;6178978;22;20005;-56
2023/05/22 02:05:42;;;;;;;4.10;3.70;;;16.40;62.90;;;;;;6177982;22;20429;-56
2023/05/22 02:08:10;;;;;;;7.95;4.03;;;16.40;63.00;;;;;;6177879;22;20434;-57
2023/05/22 02:10:37;;;;;;;4.32;3.47;;;16.30;63.00;;;;;;6178537;22;20011;-56
2023/05/22 02:13:03;;;;;;;4.00;3.42;;;16.30;62.70;;;;;;6178972;22;20008;-58
2023/05/22 02:15:29;;;;;;;7.43;3.67;;;16.30;62.70;;;;;;6177700;22;20009;-56
2023/05/22 02:17:58;;;;;;;6.90;4.05;;;16.30;62.70;;;;;;6178216;22;20310;-56
2023/05/22 02:20:23;;;;;;;3.83;3.20;;;16.30;62.90;;;;;;6177853;22;20008;-56
2023/05/22 02:22:49;;;;;;;6.30;3.85;;;16.20;63.10;;;;;;6177879;22;20232;-57
2023/05/22 02:25:15;;;;;;;5.78;3.40;;;16.30;63.10;;;;;;6178800;22;20437;-56
2023/05/22 02:27:42;;;;;;;4.10;3.58;;;16.20;62.90;;;;;;6178112;22;20005;-57
2023/05/22 02:30:09;;;;;;;6.72;3.95;;;16.30;62.80;;;;;;6178171;22;20005;-56
2023/05/22 02:32:35;;;;;;;4.50;3.40;;;16.20;62.90;;;;;;6178183;23;20436;-56
2023/05/22 02:35:02;;;;;;;5.25;3.55;;;16.30;63.10;;;;;;6177263;22;20084;-56
2023/05/22 02:37:27;;;;;;;6.28;3.80;;;16.30;63.20;;;;;;6178522;22;20005;-58
2023/05/22 02:39:53;;;;;;;4.30;3.58;;;16.30;63.20;;;;;;6178836;22;20061;-57
2023/05/22 02:42:19;;;;;;;4.45;3.58;;;16.30;63.20;;;;;;6177731;22;20481;-56
2023/05/22 02:44:44;;;;;;;4.97;3.92;;;16.30;63.40;;;;;;6177987;22;20015;-55
2023/05/22 02:47:10;;;;;;;5.90;4.05;;;16.30;63.40;;;;;;6178117;22;20038;-58
2023/05/22 02:49:35;;;;;;;5.53;3.78;;;16.30;63.60;;;;;;6177256;22;20012;-56
2023/05/22 02:52:01;;;;;;;3.97;3.30;;;16.30;63.50;;;;;;6176938;22;20424;-58
2023/05/22 02:54:27;;;;;;;5.18;3.70;;;16.30;63.40;;;;;;6177170;22;20005;-58
2023/05/22 02:56:52;;;;;;;4.40;3.55;;;16.30;63.00;;;;;;6177213;22;20005;-56
2023/05/22 02:59:18;;;;;;;4.78;3.50;;;16.40;62.90;;;;;;6177723;22;20356;-57
2023/05/22 03:01:44;;;;;;;4.50;3.55;;;16.40;63.00;;;;;;6177093;22;20009;-58
2023/05/22 03:04:11;;;;;;;5.38;3.78;;;16.40;63.00;;;;;;6176230;22;20005;-56
2023/05/22 03:06:37;;;;;;;4.40;3.63;;;16.40;62.80;;;;;;6178554;22;20098;-57
2023/05/22 03:09:03;;;;;;;5.70;3.40;;;16.40;62.80;;;;;;6179537;22;20340;-58
2023/05/22 03:11:29;;;;;;;5.40;3.72;;;16.40;62.70;;;;;;6178900;22;20009;-56
2023/05/22 03:13:55;;;;;;;4.22;3.60;;;16.50;62.70;;;;;;6178158;22;20083;-56
2023/05/22 03:16:21;;;;;;;4.95;3.90;;;16.50;62.60;;;;;;6178153;22;20042;-57
2023/05/22 03:18:49;;;;;;;5.55;4.18;;;16.60;62.60;;;;;;6178202;22;19998;-57
2023/05/22 03:21:15;;;;;;;7.00;3.63;;;16.70;62.80;;;;;;6179340;22;20001;-57
2023/05/22 03:23:41;;;;;;;4.53;3.95;;;16.70;62.90;;;;;;6179077;22;20472;-57
2023/05/22 03:26:07;;;;;;;5.80;3.30;;;16.90;63.20;;;;;;6178729;22;20012;-56
2023/05/22 03:28:33;;;;;;;4.50;3.75;;;17.00;62.90;;;;;;6178768;22;20005;-58
2023/05/22 03:30:58;;;;;;;5.25;3.28;;;17.20;62.70;;;;;;6179201;22;20006;-57
2023/05/22 03:33:24;;;;;;;4.20;3.20;;;17.40;62.60;;;;;;6281644;22;20086;-57
2023/05/22 03:35:49;;;;;;;4.93;3.42;;;17.60;62.40;;;;;;6177513;22;20075;-57
2023/05/22 03:38:15;;;;;;;8.57;3.78;;;17.90;62.00;;;;;;6176214;22;20088;-58
2023/05/22 03:40:40;;;;;;;3.65;3.20;;;18.30;61.50;;;;;;6176629;22;20001;-57
2023/05/22 03:43:06;;;;;;;3.90;3.40;;;18.70;60.90;;;;;;6176832;22;20005;-57
2023/05/22 03:45:32;;;;;;;4.55;3.17;;;19.10;60.20;;;;;;6176763;22;20425;-58
2023/05/22 03:47:57;;;;;;;6.35;3.33;;;19.60;59.30;;;;;;6176666;22;20008;-57
2023/05/22 03:50:23;;;;;;;5.80;3.67;;;19.90;57.90;;;;;;6177564;23;20012;-57
2023/05/22 03:52:49;;;;;;;4.07;3.20;;;19.90;57.10;;;;;;6178755;22;20009;-56
2023/05/22 03:55:15;;;;;;;4.90;3.53;;;19.80;57.20;;;;;;6178872;22;20012;-58
2023/05/22 03:57:40;;;;;;;3.20;2.90;;;19.60;56.80;;;;;;6178820;22;20344;-57
2023/05/22 04:00:10;;;;;;;5.13;3.60;;;19.40;56.80;;;;;;6179161;22;20001;-56
2023/05/22 04:02:43;;;;;;;4.75;3.45;;;19.20;56.90;;;;;;6177366;22;20421;-55
2023/05/22 04:05:09;;;;;;;4.70;3.53;;;19.00;57.50;;;;;;6179789;22;20028;-57
2023/05/22 04:07:35;;;;;;;5.53;3.30;;;19.20;58.50;;;;;;6179358;22;20005;-56
2023/05/22 04:10:02;;;;;;;4.70;3.35;;;19.90;58.10;;;;;;6180409;22;20005;-57
2023/05/22 04:12:28;;;;;;;4.38;3.22;;;20.80;57.20;;;;;;6179962;22;20020;-58
2023/05/22 04:14:53;;;;;;;4.60;3.00;;;21.80;55.70;;;;;;6179839;22;20013;-56
2023/05/22 04:17:19;;;;;;;6.45;3.35;;;22.70;55.20;;;;;;6177740;22;20442;-56
2023/05/22 04:19:45;;;;;;;5.68;3.40;;;23.60;53.30;;;;;;6179188;22;20005;-57
2023/05/22 04:22:10;;;;;;;4.22;3.20;;;24.40;52.30;;;;;;6178526;22;20017;-57
2023/05/22 04:24:38;;;;;;;3.03;2.72;;;25.10;50.90;;;;;;6178806;22;20012;-59
2023/05/22 04:27:05;;;;;;;3.65;3.03;;;25.70;50.30;;;;;;6178913;22;20051;-56
2023/05/22 04:29:30;;;;;;;3.40;2.95;;;26.30;49.40;;;;;;6179436;22;20759;-57
2023/05/22 04:31:56;;;;;;;5.53;2.88;;;26.70;48.90;;;;;;6178643;22;20062;-57
2023/05/22 04:34:22;;;;;;;3.45;3.00;;;27.10;48.20;;;;;;6177776;22;20008;-57
2023/05/22 04:36:48;;;;;;;4.50;3.05;;;27.50;47.70;;;;;;6174907;22;19997;-57
2023/05/22 04:39:14;;;;;;;4.05;2.90;;;27.80;47.20;;;;;;6177948;22;20317;-57
2023/05/22 04:41:40;;;;;;;5.05;3.13;;;28.20;46.80;;;;;;6176577;22;20040;-59
2023/05/22 04:44:06;;;;;;;4.40;3.13;;;28.60;47.00;;;;;;6279482;22;20015;-57
2023/05/22 04:46:35;;;;;;;3.85;3.20;;;28.90;45.80;;;;;;6176692;23;20062;-58
2023/05/22 04:49:02;;;;;;;5.60;3.22;;;29.20;45.40;;;;;;6177388;23;20009;-59
2023/05/22 04:51:28;;;;;;;5.15;3.30;;;29.40;45.10;;;;;;6177681;22;20019;-57
2023/05/22 04:53:54;;;;;;;4.20;3.05;;;29.70;44.70;;;;;;6176872;23;20012;-58
2023/05/22 04:56:21;;;;;;;3.88;2.60;;;29.90;44.50;;;;;;6177802;22;20013;-54
2023/05/22 04:58:52;;;;;;;5.78;3.15;;;30.10;44.30;;;;;;6177986;22;20030;-57
2023/05/22 05:01:18;;;;;;;5.40;3.33;;;30.30;43.70;;;;;;6177514;22;20049;-57
2023/05/22 05:03:44;;;;;;;5.03;3.20;;;30.40;43.50;;;;;;6177350;22;20013;-58
2023/05/22 05:06:11;;;;;;;3.25;2.85;;;30.60;43.50;;;;;;6178796;22;20001;-57
2023/05/22 05:08:37;;;;;;;3.88;3.00;;;30.80;43.20;;;;;;6177906;22;20005;-57
2023/05/22 05:11:03;;;;;;;5.07;2.90;;;30.90;42.90;;;;;;6178116;22;20314;-57
2023/05/22 05:13:28;;;;;;;3.90;2.85;;;31.10;42.80;;;;;;6177179;22;20004;-57
2023/05/22 05:15:56;;;;;;;3.55;2.97;;;31.20;42.30;;;;;;6177094;22;20009;-58
2023/05/22 05:18:22;;;;;;;3.53;2.88;;;31.30;42.00;;;;;;6175732;22;20472;-57
2023/05/22 05:20:47;;;;;;;4.55;2.78;;;31.30;41.50;;;;;;6175230;22;20039;-57
2023/05/22 05:23:14;;;;;;;6.38;3.20;;;31.00;41.10;;;;;;6174823;22;20133;-58
2023/05/22 05:25:39;;;;;;;3.53;3.10;;;30.50;41.40;;;;;;6175865;22;20012;-58
2023/05/22 05:28:10;;;;;;;3.83;2.88;;;29.90;41.90;;;;;;6176430;22;20624;-60
2023/05/22 05:30:39;;;;;;;;;;;29.10;42.30;;;;;;6176646;22;20060;-58
2023/05/22 05:33:05;;;;;;;4.75;3.03;;;28.40;43.20;;;;;;6176596;22;19901;-55
2023/05/22 05:35:31;;;;;;;3.55;3.15;;;27.70;43.60;;;;;;6178069;22;20008;-55
2023/05/22 05:37:57;;;;;;;4.72;3.22;;;27.00;44.30;;;;;;6175614;22;20009;-58
2023/05/22 05:40:23;;;;;;;4.75;3.33;;;26.40;44.90;;;;;;6177916;22;20302;-57
2023/05/22 05:42:48;;;;;;;4.82;3.40;;;25.90;45.60;;;;;;6175329;22;20001;-56
2023/05/22 05:45:14;;;;;;;3.40;3.10;;;25.40;46.20;;;;;;6176312;22;20070;-56
2023/05/22 05:47:40;;;;;;;3.63;3.17;;;25.00;46.80;;;;;;6174622;22;20046;-55
2023/05/22 05:50:06;;;;;;;4.78;3.40;;;24.80;47.40;;;;;;6177248;22;20029;-56
2023/05/22 05:52:32;;;;;;;4.93;3.38;;;24.50;48.10;;;;;;6175325;22;20056;-56
2023/05/22 05:54:59;;;;;;;4.40;3.10;;;24.20;48.70;;;;;;6174372;22;20016;-55
2023/05/22 05:57:26;;;;;;;3.92;3.33;;;24.00;49.00;;;;;;6173196;22;20005;-57
2023/05/22 05:59:51;;;;;;;5.55;3.60;;;23.80;49.60;;;;;;6173270;22;20004;-55
2023/05/22 06:02:17;;;;;;;3.50;2.95;;;23.70;49.80;;;;;;6175233;22;20009;-59
2023/05/22 06:04:47;;;;;;;6.70;3.42;;;23.50;50.20;;;;;;6177707;22;20329;-57
2023/05/22 06:07:14;;;;;;;5.15;3.15;;;23.40;50.60;;;;;;6176906;22;20005;-59
2023/05/22 06:09:40;;;;;;;4.78;3.80;;;23.30;50.80;;;;;;6177071;22;20036;-58
2023/05/22 06:12:06;;;;;;;4.75;3.50;;;23.10;51.10;;;;;;6174515;22;20764;-57
2023/05/22 06:14:32;;;;;;;5.47;3.50;;;23.00;51.60;;;;;;6174239;22;20080;-58
2023/05/22 06:16:57;;;;;;;4.20;3.35;;;23.00;52.10;;;;;;6171654;22;20078;-57
2023/05/22 06:19:23;;;;;;;5.32;3.63;;;23.00;52.50;;;;;;6173063;22;20055;-56
2023/05/22 06:21:50;;;;;;;4.28;3.38;;;22.90;52.70;;;;;;6276690;22;20020;-57
2023/05/22 06:24:15;;;;;;;5.90;3.63;;;22.90;52.80;;;;;;6171059;23;20103;-57
2023/05/22 06:26:41;;;;;;;5.00;3.67;;;22.90;53.10;;;;;;6167487;22;20040;-57
2023/05/22 06:29:06;;;;;;;5.25;3.63;;;22.90;53.10;;;;;;6171184;22;20132;-56
2023/05/22 06:31:34;;;;;;;4.30;3.40;;;22.80;53.30;;;;;;6171480;22;20021;-57
2023/05/22 06:34:00;;;;;;;4.15;3.20;;;22.80;53.40;;;;;;6174862;22;20687;-57
2023/05/22 06:36:26;;;;;;;7.63;3.72;;;22.80;53.40;;;;;;6175960;22;20001;-56
2023/05/22 06:38:53;;;;;;;4.50;3.38;;;22.80;53.60;;;;;;6175087;22;20439;-56
2023/05/22 06:41:20;;;;;;;6.13;3.47;;;22.80;53.90;;;;;;6172137;22;20012;-56
2023/05/22 06:43:45;;;;;;;5.13;3.75;;;22.70;53.80;;;;;;6178880;22;20501;-60
2023/05/22 06:46:11;;;;;;;3.88;3.42;;;22.70;54.00;;;;;;6175424;22;20012;-59
2023/05/22 06:48:37;;;;;;;3.78;3.38;;;22.70;54.10;;;;;;6174002;22;20016;-58
2023/05/22 06:51:03;;;;;;;4.40;3.35;;;22.70;54.20;;;;;;6175392;22;20380;-57
2023/05/22 06:53:29;;;;;;;4.72;3.30;;;22.70;54.30;;;;;;6173832;23;20009;-57
2023/05/22 06:55:55;;;;;;;4.45;3.35;;;22.70;54.30;;;;;;6175954;22;20019;-57
2023/05/22 06:58:21;;;;;;;4.28;3.63;;;22.70;54.30;;;;;;6169230;22;19997;-59
2023/05/22 07:00:46;;;;;;;4.70;3.70;;;22.70;54.70;;;;;;6170459;22;20062;-57
2023/05/22 07:03:12;;;;;;;7.25;4.10;;;22.70;55.20;;;;;;6166745;22;20104;-58
2023/05/22 07:05:37;;;;;;;4.45;3.30;;;22.60;55.30;;;;;;6174964;22;20040;-58
2023/05/22 07:08:03;;;;;;;5.40;3.67;;;22.60;55.00;;;;;;6171310;22;20001;-57
2023/05/22 07:10:29;;;;;;;3.80;3.40;;;22.60;55.20;;;;;;6167811;22;20009;-57
2023/05/22 07:12:54;;;;;;;6.28;3.80;;;22.60;55.10;;;;;;6170742;22;20005;-57
2023/05/22 07:15:20;;;;;;;5.45;4.07;;;22.70;55.30;;;;;;6170176;22;20213;-59
2023/05/22 07:17:46;;;;;;;4.82;3.58;;;22.70;55.40;;;;;;6173414;22;20086;-57
2023/05/22 07:20:14;;;;;;;6.07;3.42;;;22.70;55.40;;;;;;6172274;22;20070;-58
2023/05/22 07:22:40;;;;;;;5.55;3.72;;;22.80;55.50;;;;;;6168468;22;20378;-57
2023/05/22 07:25:06;;;;;;;8.32;4.22;;;22.80;55.70;;;;;;6168829;22;20027;-59
2023/05/22 07:27:31;;;;;;;6.22;3.97;;;22.80;55.80;;;;;;6170339;22;20009;-57
2023/05/22 07:29:57;;;;;;;4.82;3.80;;;22.90;55.60;;;;;;6160924;22;20005;-57
2023/05/22 07:32:23;;;;;;;4.35;3.55;;;22.90;55.60;;;;;;6168130;22;20009;-58
2023/05/22 07:34:48;;;;;;;4.15;3.30;;;23.00;55.90;;;;;;6160263;22;20092;-56
2023/05/22 07:37:14;;;;;;;4.28;3.50;;;23.00;56.00;;;;;;6163191;22;20008;-58
2023/05/22 07:39:40;;;;;;;5.95;3.97;;;23.00;55.70;;;;;;6163899;22;20012;-58
2023/05/22 07:42:06;;;;;;;3.92;3.50;;;23.00;55.70;;;;;;6162191;22;20009;-58
2023/05/22 07:44:33;;;;;;;6.72;3.60;;;23.00;55.90;;;;;;6161395;22;19998;-59
2023/05/22 07:46:58;;;;;;;3.95;3.45;;;23.00;56.10;;;;;;6163787;22;20008;-58
2023/05/22 07:49:24;;;;;;;5.88;3.70;;;23.00;56.00;;;;;;6159534;22;20679;-59
2023/05/22 07:51:50;;;;;;;4.57;3.42;;;22.90;55.80;;;;;;6164868;22;20429;-59
2023/05/22 07:54:17;;;;;;;4.80;3.40;;;22.90;55.90;;;;;;6163568;22;20001;-58
2023/05/22 07:56:44;;;;;;;5.85;3.63;;;22.90;56.30;;;;;;6160953;23;20467;-56
2023/05/22 07:59:11;;;;;;;5.72;4.03;;;22.80;57.30;;;;;;6163238;22;20009;-56
2023/05/22 08:01:40;;;;;;;5.13;3.65;;;22.80;57.70;;;;;;6159195;22;20006;-56
2023/05/22 08:04:06;;;;;;;4.65;3.60;;;22.70;57.60;;;;;;6160587;22;20050;-57
2023/05/22 08:06:33;;;;;;;4.72;3.78;;;22.70;57.30;;;;;;6164687;22;20013;-58
2023/05/22 08:09:01;;;;;;;5.45;3.53;;;22.60;57.40;;;;;;6166107;22;20008;-58
2023/05/22 08:11:27;;;;;;;7.40;4.13;;;22.50;57.70;;;;;;6163671;22;20063;-58
2023/05/22 08:13:53;;;;;;;6.20;3.78;;;22.50;58.00;;;;;;6238447;22;20005;-57
2023/05/22 08:16:18;;;;;;;5.57;4.03;;;22.40;58.20;;;;;;6160990;22;20048;-59
2023/05/22 08:18:44;;;;;;;4.93;3.80;;;22.40;58.90;;;;;;6158582;22;20055;-56
2023/05/22 08:21:10;;;;;;;5.93;3.40;;;22.30;59.10;;;;;;6157325;22;20078;-58
2023/05/22 08:23:37;;;;;;;4.13;3.67;;;22.30;59.20;;;;;;6154475;22;20017;-57
2023/05/22 08:26:03;;;;;;;8.80;3.50;;;22.40;59.40;;;;;;6155370;22;20085;-58
2023/05/22 08:28:29;;;;;;;4.10;3.45;;;22.40;59.10;;;;;;6155849;22;20009;-57
2023/05/22 08:30:54;;;;;;;4.68;3.80;;;22.40;58.80;;;;;;6158119;22;20384;-58
2023/05/22 08:33:20;;;;;;;5.70;3.85;;;22.40;58.90;;;;;;6158846;22;20447;-57
2023/05/22 08:35:46;;;;;;;5.35;3.83;;;22.40;59.10;;;;;;6159375;22;20037;-58
2023/05/22 08:38:11;;;;;;;4.00;3.50;;;22.40;59.40;;;;;;6161562;22;20008;-56
2023/05/22 08:40:38;;;;;;;4.57;3.63;;;22.40;59.50;;;;;;6154974;22;20005;-59
2023/05/22 08:43:05;;;;;;;4.95;3.70;;;22.40;59.60;;;;;;6157085;22;20005;-58
2023/05/22 08:45:33;;;;;;;4.75;3.40;;;22.50;60.00;;;;;;6160198;22;20027;-58
2023/05/22 08:48:04;;;;;;;4.93;3.53;;;22.60;59.40;;;;;;6166450;22;20444;-58
2023/05/22 08:50:30;;;;;;;4.47;3.70;;;22.70;59.30;;;;;;6158347;22;20033;-57
2023/05/22 08:52:57;;;;;;;5.18;3.45;;;22.60;58.80;;;;;;6163063;23;20040;-58
2023/05/22 08:55:23;;;;;;;5.18;3.28;;;22.70;58.50;;;;;;6162003;22;20009;-58
2023/05/22 08:57:50;;;;;;;5.40;3.33;;;22.70;58.10;;;;;;6156495;22;20754;-56
2023/05/22 09:00:16;;;;;;;4.03;3.38;;;22.70;58.20;;;;;;6160023;22;20024;-59
2023/05/22 09:02:42;;;;;;;3.78;2.97;;;22.70;58.20;;;;;;6155931;22;20010;-58
2023/05/22 09:05:08;;;;;;;3.53;3.22;;;22.70;58.70;;;;;;6158159;22;20062;-57
2023/05/22 09:07:35;;;;;;;4.10;3.28;;;22.70;59.20;;;;;;6157933;22;20090;-55
2023/05/22 09:10:04;;;;;;;3.92;3.47;;;22.60;59.30;;;;;;6161741;22;20013;-59
2023/05/22 09:12:30;;;;;;;4.05;3.17;;;22.60;59.40;;;;;;6162034;22;20019;-58
2023/05/22 09:15:02;;;;;;;5.38;3.63;;;22.60;59.40;;;;;;6160519;22;20011;-59
2023/05/22 09:17:27;;;;;;;4.40;3.28;;;22.60;59.50;;;;;;6159729;22;20032;-56
2023/05/22 09:19:53;;;;;;;4.75;3.40;;;22.50;60.20;;;;;;6164935;22;20055;-57
2023/05/22 09:22:19;;;;;;;4.13;3.35;;;22.50;59.70;;;;;;6159022;22;20025;-57
2023/05/22 09:24:46;;;;;;;4.53;3.60;;;22.60;59.60;;;;;;6160726;22;20005;-60
2023/05/22 09:27:11;;;;;;;3.83;3.28;;;22.60;59.60;;;;;;6163623;22;20012;-57
2023/05/22 09:29:51;;;;;;;4.82;3.22;;;22.60;59.40;;;;;;6162360;22;20329;-60
2023/05/22 09:32:18;;;;;;;4.85;3.65;;;22.60;59.70;;;;;;6161597;22;20005;-57
2023/05/22 09:34:45;;;;;;;4.25;3.03;;;22.60;59.50;;;;;;6156690;22;20009;-58
2023/05/22 09:37:12;;;;;;;5.35;3.65;;;22.70;59.70;;;;;;6162494;22;20080;-57
2023/05/22 09:39:46;;;;;;;3.67;3.15;;;22.70;59.60;;;;;;6161715;22;20005;-58
2023/05/22 09:42:15;;;;;;;3.90;3.20;;;22.80;59.40;;;;;;6161625;22;20005;-57
2023/05/22 09:44:43;;;;;;;4.45;3.45;;;22.80;59.30;;;;;;6162648;22;20384;-58
2023/05/22 09:47:09;;;;;;;3.90;3.35;;;22.80;59.30;;;;;;6159663;22;20004;-54
2023/05/22 09:49:40;;;;;;;3.70;3.08;;;22.90;58.80;;;;;;6161900;22;20001;-57
2023/05/22 09:52:07;;;;;;;3.65;3.25;;;22.90;58.20;;;;;;6159648;22;20039;-58
2023/05/22 09:54:34;;;;;;;3.80;3.40;;;22.90;58.00;;;;;;6159186;22;20066;-57
2023/05/22 09:57:00;;;;;;;3.47;3.17;;;23.00;58.10;;;;;;6157189;22;20476;-58
2023/05/22 09:59:28;;;;;;;4.00;3.10;;;23.00;58.20;;;;;;6159915;22;20001;-58
2023/05/22 10:01:55;;;;;;;4.60;3.40;;;23.00;58.10;;;;;;6155235;22;20005;-57
2023/05/22 10:04:22;;;;;;;4.72;3.15;;;23.10;58.10;;;;;;6157384;22;20006;-56
2023/05/22 10:06:52;;;;;;;4.55;3.20;;;23.10;58.00;;;;;;6157263;22;20005;-58
2023/05/22 10:09:22;;;;;;;5.45;3.50;;;23.10;57.90;;;;;;6160729;22;20009;-57
2023/05/22 10:11:51;;;;;;;4.53;3.17;;;23.20;58.10;;;;;;6159454;22;20005;-58
2023/05/22 10:14:17;;;;;;;4.45;3.67;;;23.20;58.00;;;;;;6162669;22;20005;-58
2023/05/22 10:16:44;;;;;;;3.47;3.08;;;23.20;57.80;;;;;;6160476;22;20099;-59
2023/05/22 10:19:11;;;;;;;3.75;3.20;;;23.30;57.60;;;;;;6159512;22;20037;-56
2023/05/22 10:21:39;;;;;;;5.03;3.13;;;23.30;57.50;;;;;;6158662;22;20553;-59
2023/05/22 10:24:06;;;;;;;4.93;3.30;;;23.30;57.40;;;;;;6161252;22;20025;-57
2023/05/22 10:26:32;;;;;;;4.95;3.70;;;23.30;57.50;;;;;;6159601;22;20012;-57
2023/05/22 10:29:13;;;;;;;6.47;3.53;;;23.30;57.40;;;;;;6159390;22;20005;-59
2023/05/22 10:31:46;;;;;;;4.68;3.47;;;23.30;57.30;;;;;;6158248;22;20640;-58
2023/05/22 10:34:21;;;;;;;4.35;3.53;;;23.30;57.40;;;;;;6163871;22;20015;-58
2023/05/22 10:37:03;;;;;;;5.05;3.65;;;23.30;57.60;;;;;;6164309;22;20012;-58
2023/05/22 10:40:03;;;;;;;5.75;3.88;;;23.30;58.50;;;;;;6162649;22;20009;-55
2023/05/22 10:42:30;;;;;;;5.30;4.40;;;23.30;58.90;;;;;;6161898;22;20001;-58
2023/05/22 10:44:56;;;;;;;5.60;4.82;;;23.30;58.40;;;;;;6156476;23;20044;-59
2023/05/22 10:47:21;;;;;;;6.45;4.63;;;23.30;58.30;;;;;;6158547;22;20036;-58
2023/05/22 10:49:49;;;;;;;5.28;4.57;;;23.30;58.10;;;;;;6160908;22;20088;-57
2023/05/22 10:52:17;;;;;;;7.80;4.90;;;23.20;57.80;;;;;;6158877;22;20085;-58
2023/05/22 10:54:44;;;;;;;5.45;4.15;;;23.20;57.80;;;;;;6166528;22;20084;-58
2023/05/22 10:57:15;;;;;;;4.53;4.10;;;23.10;57.80;;;;;;6164419;22;20036;-56
2023/05/22 10:59:41;;;;;;;5.63;4.32;;;23.20;58.20;;;;;;6161593;22;20005;-57
2023/05/22 11:02:33;;;;;;;6.10;4.40;;;23.10;58.60;;;;;;6156513;22;20749;-56
2023/05/22 11:05:17;;;;;;;5.88;4.60;;;23.10;58.40;;;;;;6157417;22;20005;-57
2023/05/22 11:07:43;;;;;;;5.30;4.30;;;23.10;58.60;;;;;;6159206;22;20067;-57
2023/05/22 11:10:09;;;;;;;5.55;4.88;;;23.10;59.30;;;;;;6159858;22;20421;-58
2023/05/22 11:12:36;;;;;;;4.90;4.03;;;23.10;58.70;;;;;;6159749;22;20005;-59
2023/05/22 11:15:10;;;;;;;6.25;4.72;;;23.10;58.60;;;;;;6166081;22;20341;-57
2023/05/22 11:17:38;;;;;;;6.32;4.68;;;23.10;58.30;;;;;;6156645;23;20445;-57
2023/05/22 11:20:29;;;;;;;5.25;4.60;;;23.10;58.50;;;;;;6158644;22;20080;-57
2023/05/22 11:23:00;;;;;;;6.90;4.60;;;23.10;59.00;;;;;;6162758;23;20745;-58
2023/05/22 11:25:26;;;;;;;6.40;5.25;;;23.20;58.90;;;;;;6160024;22;20013;-57
2023/05/22 11:27:53;;;;;;;6.57;5.18;;;23.20;59.20;;;;;;6163867;22;20012;-59
2023/05/22 11:30:19;;;;;;;7.30;5.20;;;23.20;59.30;;;;;;6164434;22;20019;-58
2023/05/22 11:32:46;;;;;;;5.38;4.50;;;23.20;58.90;;;;;;6160954;23;20005;-58
2023/05/22 11:35:22;;;;;;;6.10;4.60;;;23.20;58.60;;;;;;6158317;22;20009;-56
2023/05/22 11:37:50;;;;;;;9.20;5.10;;;23.20;58.30;;;;;;6161841;22;20005;-58
2023/05/22 11:40:19;;;;;;;6.75;5.45;;;23.20;58.50;;;;;;6163704;22;20058;-59
2023/05/22 11:42:46;;;;;;;6.10;4.65;;;23.20;58.60;;;;;;6163658;22;20001;-58
2023/05/22 11:45:12;;;;;;;6.57;4.57;;;23.10;58.90;;;;;;6162031;22;20005;-61
2023/05/22 11:47:38;;;;;;;4.72;4.25;;;23.10;58.60;;;;;;6156406;22;20005;-61
2023/05/22 11:50:07;;;;;;;6.35;4.85;;;23.10;58.90;;;;;;6160219;22;20020;-61
2023/05/22 11:52:34;;;;;;;6.57;4.80;;;23.10;59.40;;;;;;6162466;22;20005;-58
2023/05/22 11:55:01;;;;;;;5.57;4.72;;;23.00;59.90;;;;;;6167728;22;20016;-59
2023/05/22 11:57:27;;;;;;;6.35;4.43;;;22.90;59.70;;;;;;6159705;23;20012;-60
2023/05/22 11:59:53;;;;;;;6.63;4.30;;;22.90;59.80;;;;;;6159892;22;20024;-58
2023/05/22 12:02:19;;;;;;;5.10;3.92;;;22.90;59.60;;;;;;6149800;22;20810;-59
2023/05/22 12:04:45;;;;;;;6.15;4.28;;;22.80;60.10;;;;;;6156164;22;20119;-59
2023/05/22 12:07:11;;;;;;;7.60;4.30;;;22.80;59.90;;;;;;6159754;22;20008;-57
2023/05/22 12:09:40;;;;;;;5.30;4.25;;;22.80;60.00;;;;;;6161816;22;20372;-58
2023/05/22 12:12:10;;;;;;;5.68;3.80;;;22.80;60.10;;;;;;6161594;22;20002;-58
2023/05/22 12:14:36;;;;;;;5.20;4.03;;;22.80;60.30;;;;;;6166677;22;20000;-57
2023/05/22 12:17:05;;;;;;;5.15;4.13;;;22.80;60.00;;;;;;6156920;22;20051;-57
2023/05/22 12:19:31;;;;;;;4.60;3.78;;;22.90;59.70;;;;;;6153270;22;20792;-57
2023/05/22 12:21:58;;;;;;;4.80;4.30;;;22.90;59.60;;;;;;6158440;22;20809;-58
2023/05/22 12:24:24;;;;;;;5.10;3.92;;;22.90;59.20;;;;;;6155061;22;20002;-59
2023/05/22 12:26:53;;;;;;;5.00;4.22;;;22.90;58.90;;;;;;6156040;22;20039;-58
2023/05/22 12:29:22;;;;;;;5.78;4.03;;;22.90;59.10;;;;;;6159941;22;20013;-57
2023/05/22 12:31:48;;;;;;;14.85;5.30;;;22.90;59.50;;;;;;6159222;22;20012;-57
2023/05/22 12:34:17;;;;;;;6.97;4.28;;;22.90;60.30;;;;;;6160566;22;20005;-55
2023/05/22 12:36:44;;;;;;;3.78;3.38;;;22.80;60.50;;;;;;6158037;22;20612;-58
2023/05/22 12:39:20;;;;;;;4.72;3.65;;;22.70;60.50;;;;;;6263628;22;20009;-57
2023/05/22 12:41:45;;;;;;;4.97;3.45;;;22.60;60.50;;;;;;6160147;22;20025;-56
2023/05/22 12:44:13;;;;;;;5.55;3.78;;;22.40;61.30;;;;;;6162700;22;20662;-57
2023/05/22 12:46:40;;;;;;;4.70;3.90;;;22.30;62.00;;;;;;6160693;22;20543;-56
2023/05/22 12:49:06;;;;;;;4.95;3.97;;;22.20;62.20;;;;;;6158956;23;20527;-60
2023/05/22 12:51:31;;;;;;;6.25;4.55;;;22.10;62.50;;;;;;6161779;22;20005;-59